createdAt,value
2022-07-29T00:01:44.339Z,12.10
2022-07-29T00:04:13.991Z,12.00
2022-07-29T00:06:42.463Z,12.00
2022-07-29T00:09:10.737Z,12.00
2022-07-29T00:11:38.603Z,12.00
2022-07-29T00:14:06.403Z,11.90
2022-07-29T00:16:34.785Z,11.90
2022-07-29T00:19:03.119Z,11.90
2022-07-29T00:21:31.159Z,11.80
2022-07-29T00:23:59.248Z,11.80
2022-07-29T00:26:28.947Z,11.80
2022-07-29T00:29:17.408Z,11.80
2022-07-29T00:31:44.894Z,11.80
2022-07-29T00:34:31.627Z,11.90
2022-07-29T00:36:59.631Z,11.80
2022-07-29T00:39:27.560Z,11.80
2022-07-29T00:41:55.866Z,11.80
2022-07-29T00:44:23.908Z,11.90
2022-07-29T00:46:51.789Z,11.90
2022-07-29T00:49:19.797Z,11.90
2022-07-29T00:51:49.624Z,11.90
2022-07-29T00:54:17.635Z,11.90
2022-07-29T00:56:45.812Z,11.90
2022-07-29T00:59:13.672Z,11.90
2022-07-29T01:01:41.415Z,11.90
2022-07-29T01:04:09.470Z,12.00
2022-07-29T01:06:38.379Z,12.00
2022-07-29T01:09:07.759Z,12.00
2022-07-29T01:11:37.266Z,12.10
2022-07-29T01:14:09.644Z,12.10
2022-07-29T01:17:11.359Z,12.10
2022-07-29T01:20:21.223Z,12.20
2022-07-29T01:23:10.047Z,12.10
2022-07-29T01:25:53.096Z,12.00
2022-07-29T01:28:54.455Z,12.00
2022-07-29T01:31:59.065Z,12.10
2022-07-29T01:34:55.272Z,12.10
2022-07-29T01:38:00.655Z,12.10
2022-07-29T01:41:22.744Z,12.10
2022-07-29T01:44:19.432Z,12.00
2022-07-29T01:46:59.352Z,11.90
2022-07-29T01:49:32.916Z,11.80
2022-07-29T01:52:08.723Z,11.70
2022-07-29T01:54:56.980Z,11.70
2022-07-29T01:57:32.974Z,11.70
2022-07-29T02:00:02.887Z,11.70
2022-07-29T02:02:44.745Z,11.60
2022-07-29T02:05:18.621Z,11.70
2022-07-29T02:07:51.494Z,11.60
2022-07-29T02:10:27.748Z,11.60
2022-07-29T02:12:59.187Z,11.60
2022-07-29T02:15:31.971Z,11.60
2022-07-29T02:18:10.689Z,11.60
2022-07-29T02:20:43.415Z,11.60
2022-07-29T02:23:14.046Z,11.60
2022-07-29T02:25:44.563Z,11.60
2022-07-29T02:28:16.361Z,11.70
2022-07-29T02:30:47.310Z,11.70
2022-07-29T02:33:19.503Z,11.80
2022-07-29T02:35:49.783Z,11.90
2022-07-29T02:38:38.383Z,12.10
2022-07-29T02:41:15.000Z,12.20
2022-07-29T02:43:48.546Z,12.30
2022-07-29T02:46:32.378Z,12.30
2022-07-29T02:49:27.814Z,12.40
2022-07-29T02:52:03.889Z,12.40
2022-07-29T02:54:42.273Z,12.30
2022-07-29T02:57:22.896Z,12.20
2022-07-29T02:59:58.487Z,12.20
2022-07-29T03:02:28.956Z,12.20
2022-07-29T03:05:02.052Z,12.10
2022-07-29T03:07:31.874Z,12.10
2022-07-29T03:10:01.301Z,12.10
2022-07-29T03:12:31.717Z,12.00
2022-07-29T03:15:03.001Z,12.00
2022-07-29T03:17:32.758Z,12.00
2022-07-29T03:20:02.659Z,11.80
2022-07-29T03:22:31.310Z,11.80
2022-07-29T03:24:58.960Z,11.70
2022-07-29T03:27:26.935Z,11.70
2022-07-29T03:29:54.647Z,11.80
2022-07-29T03:32:25.145Z,11.80
2022-07-29T03:34:53.970Z,11.80
2022-07-29T03:37:21.927Z,11.80
2022-07-29T03:39:53.040Z,11.80
2022-07-29T03:42:31.091Z,11.90
2022-07-29T03:45:08.578Z,11.90
2022-07-29T03:47:49.576Z,12.00
2022-07-29T03:50:21.468Z,11.90
2022-07-29T03:52:50.695Z,12.20
2022-07-29T03:55:19.486Z,12.30
2022-07-29T03:57:49.396Z,12.30
2022-07-29T04:00:17.903Z,12.40
2022-07-29T04:02:49.427Z,12.50
2022-07-29T04:05:19.152Z,12.70
2022-07-29T04:07:48.845Z,12.90
2022-07-29T04:10:25.334Z,13.00
2022-07-29T04:13:01.265Z,13.10
2022-07-29T04:15:31.009Z,13.30
2022-07-29T04:18:00.450Z,13.40
2022-07-29T04:20:28.576Z,13.60
2022-07-29T04:22:56.617Z,13.80
2022-07-29T04:25:24.544Z,14.00
2022-07-29T04:28:01.279Z,14.30
2022-07-29T04:30:30.999Z,14.70
2022-07-29T04:32:59.493Z,15.40
2022-07-29T04:35:27.850Z,16.90
2022-07-29T04:37:55.730Z,18.50
2022-07-29T04:40:24.458Z,20.00
2022-07-29T04:42:52.297Z,20.10
2022-07-29T04:45:22.814Z,20.20
2022-07-29T04:47:51.643Z,20.60
2022-07-29T04:50:19.478Z,20.60
2022-07-29T04:52:47.472Z,21.90
2022-07-29T04:55:15.995Z,23.20
2022-07-29T04:57:43.912Z,23.80
2022-07-29T05:00:12.796Z,24.20
2022-07-29T05:02:41.068Z,24.30
2022-07-29T05:05:09.930Z,23.90
2022-07-29T05:07:37.548Z,22.80
2022-07-29T05:10:06.361Z,22.20
2022-07-29T05:12:34.588Z,21.70
2022-07-29T05:15:02.581Z,22.00
2022-07-29T05:17:30.630Z,22.50
2022-07-29T05:19:58.447Z,22.80
2022-07-29T05:22:26.223Z,22.70
2022-07-29T05:24:54.404Z,23.00
2022-07-29T05:27:22.050Z,23.10
2022-07-29T05:29:49.895Z,23.20
2022-07-29T05:32:18.029Z,23.10
2022-07-29T05:34:50.876Z,23.10
2022-07-29T05:37:22.830Z,22.90
2022-07-29T05:39:56.867Z,22.60
2022-07-29T05:42:29.034Z,23.00
2022-07-29T05:44:57.422Z,23.10
2022-07-29T05:47:25.860Z,23.10
2022-07-29T05:49:55.096Z,23.40
2022-07-29T05:52:23.264Z,23.60
2022-07-29T05:54:51.236Z,23.20
2022-07-29T05:57:25.354Z,23.10
2022-07-29T05:59:53.345Z,23.20
2022-07-29T06:02:21.947Z,23.50
2022-07-29T06:04:50.506Z,23.50
2022-07-29T06:07:18.444Z,24.10
2022-07-29T06:09:46.515Z,24.30
2022-07-29T06:12:14.250Z,24.20
2022-07-29T06:14:41.920Z,24.50
2022-07-29T06:17:09.967Z,24.40
2022-07-29T06:19:37.883Z,24.40
2022-07-29T06:22:05.720Z,24.70
2022-07-29T06:24:33.755Z,25.30
2022-07-29T06:27:01.418Z,25.40
2022-07-29T06:29:29.425Z,25.60
2022-07-29T06:31:57.559Z,26.00
2022-07-29T06:34:25.402Z,26.10
2022-07-29T06:36:54.235Z,26.70
2022-07-29T06:39:22.706Z,26.30
2022-07-29T06:41:51.657Z,26.10
2022-07-29T06:44:20.336Z,25.80
2022-07-29T06:46:51.133Z,25.70
2022-07-29T06:49:19.036Z,25.10
2022-07-29T06:51:47.609Z,25.50
2022-07-29T06:54:15.836Z,25.60
2022-07-29T06:56:44.394Z,25.20
2022-07-29T06:59:13.724Z,25.20
2022-07-29T07:01:44.561Z,24.40
2022-07-29T07:04:13.533Z,23.70
2022-07-29T07:06:41.883Z,22.90
2022-07-29T07:09:09.750Z,22.40
2022-07-29T07:11:37.520Z,22.60
2022-07-29T07:14:05.310Z,23.20
2022-07-29T07:16:33.638Z,22.70
2022-07-29T07:19:02.112Z,22.80
2022-07-29T07:21:31.248Z,22.90
2022-07-29T07:24:00.868Z,23.40
2022-07-29T07:26:29.390Z,24.10
2022-07-29T07:28:57.216Z,25.40
2022-07-29T07:31:25.444Z,25.80
2022-07-29T07:33:54.735Z,25.80
2022-07-29T07:36:23.295Z,26.00
2022-07-29T07:38:51.458Z,26.30
2022-07-29T07:41:19.415Z,26.80
2022-07-29T07:43:47.227Z,27.20
2022-07-29T07:46:16.218Z,26.90
2022-07-29T07:48:44.446Z,28.10
2022-07-29T07:51:12.875Z,28.10
2022-07-29T07:53:40.998Z,28.70
2022-07-29T07:56:11.769Z,30.20
2022-07-29T07:58:40.576Z,31.20
2022-07-29T08:01:09.702Z,31.40
2022-07-29T08:03:37.912Z,32.00
2022-07-29T08:06:06.248Z,32.70
2022-07-29T08:08:34.894Z,31.80
2022-07-29T08:11:09.189Z,31.40
2022-07-29T08:13:39.547Z,30.20
2022-07-29T08:16:16.623Z,30.10
2022-07-29T08:18:47.121Z,29.90
2022-07-29T08:21:16.755Z,30.40
2022-07-29T08:23:59.593Z,30.50
2022-07-29T08:26:27.974Z,30.10
2022-07-29T08:28:55.887Z,30.60
2022-07-29T08:31:23.957Z,30.90
2022-07-29T08:33:52.303Z,31.40
2022-07-29T08:36:22.149Z,30.20
2022-07-29T08:38:50.725Z,29.50
2022-07-29T08:41:21.641Z,28.50
2022-07-29T08:43:52.186Z,28.90
2022-07-29T08:46:22.497Z,30.30
2022-07-29T08:48:51.190Z,29.30
2022-07-29T08:51:22.389Z,29.90
2022-07-29T08:53:52.507Z,29.50
2022-07-29T08:56:22.126Z,30.00
2022-07-29T08:58:52.388Z,29.90
2022-07-29T09:01:35.605Z,29.40
2022-07-29T09:04:11.568Z,30.60
2022-07-29T09:06:47.589Z,30.90
2022-07-29T09:09:16.448Z,29.70
2022-07-29T09:11:45.389Z,30.30
2022-07-29T09:14:15.135Z,29.40
2022-07-29T09:17:02.610Z,29.30
2022-07-29T09:19:37.982Z,30.40
2022-07-29T09:22:10.451Z,30.00
2022-07-29T09:24:43.127Z,30.70
2022-07-29T09:27:21.082Z,31.20
2022-07-29T09:30:11.982Z,32.10
2022-07-29T09:33:04.806Z,32.80
2022-07-29T09:35:33.440Z,33.30
2022-07-29T09:38:15.293Z,33.90
2022-07-29T09:40:59.936Z,31.80
2022-07-29T09:43:34.212Z,31.40
2022-07-29T09:46:15.905Z,31.70
2022-07-29T09:49:06.568Z,31.90
2022-07-29T09:51:39.010Z,31.70
2022-07-29T09:54:27.454Z,28.50
2022-07-29T09:56:56.887Z,30.30
2022-07-29T09:59:27.742Z,31.30
2022-07-29T10:01:57.529Z,32.80
2022-07-29T10:04:42.418Z,33.90
2022-07-29T10:07:11.044Z,34.30
2022-07-29T10:09:38.754Z,34.60
2022-07-29T10:12:17.774Z,34.40
2022-07-29T10:14:48.709Z,31.70
2022-07-29T10:17:19.432Z,29.50
2022-07-29T10:19:50.402Z,28.50
2022-07-29T10:22:43.579Z,31.40
2022-07-29T10:25:10.639Z,32.50
2022-07-29T10:27:40.844Z,32.70
2022-07-29T10:30:11.071Z,33.50
2022-07-29T10:32:58.017Z,34.70
2022-07-29T10:35:58.207Z,33.00
2022-07-29T10:38:39.144Z,31.70
2022-07-29T10:41:52.326Z,30.80
2022-07-29T10:44:24.976Z,33.20
2022-07-29T10:46:55.915Z,33.70
2022-07-29T10:49:31.435Z,34.30
2022-07-29T10:52:11.687Z,32.50
2022-07-29T10:54:52.681Z,32.30
2022-07-29T10:57:52.581Z,30.40
2022-07-29T11:00:17.353Z,29.90
2022-07-29T11:02:52.377Z,31.20
2022-07-29T11:05:22.326Z,32.30
2022-07-29T11:08:20.224Z,33.60
2022-07-29T11:10:51.234Z,33.60
2022-07-29T11:13:52.231Z,31.10
2022-07-29T11:16:25.151Z,32.50
2022-07-29T11:19:13.332Z,30.50
2022-07-29T11:21:55.204Z,27.40
2022-07-29T11:24:35.850Z,29.90
2022-07-29T11:27:21.263Z,32.20
2022-07-29T11:29:53.478Z,35.00
2022-07-29T11:32:25.129Z,33.30
2022-07-29T11:35:37.411Z,33.00
2022-07-29T11:38:28.654Z,33.70
2022-07-29T11:41:18.973Z,31.00
2022-07-29T11:43:58.426Z,31.60
2022-07-29T11:46:51.517Z,31.00
2022-07-29T11:49:32.158Z,29.60
2022-07-29T11:52:05.586Z,28.60
2022-07-29T11:54:57.445Z,27.90
2022-07-29T11:57:36.000Z,25.40
2022-07-29T12:00:12.512Z,24.60
2022-07-29T12:02:48.581Z,26.00
2022-07-29T12:05:36.715Z,29.60
2022-07-29T12:08:22.789Z,31.60
2022-07-29T12:10:52.470Z,32.60
2022-07-29T12:13:22.948Z,33.40
2022-07-29T12:16:06.783Z,33.20
2022-07-29T12:18:34.943Z,30.30
2022-07-29T12:21:05.084Z,29.20
2022-07-29T12:23:36.300Z,28.00
2022-07-29T12:26:10.674Z,28.90
2022-07-29T12:28:41.936Z,30.30
2022-07-29T12:31:43.684Z,29.80
2022-07-29T12:34:05.303Z,30.80
2022-07-29T12:36:34.079Z,30.90
2022-07-29T12:39:02.262Z,27.60
2022-07-29T12:41:31.165Z,25.90
2022-07-29T12:43:59.241Z,25.20
2022-07-29T12:46:27.839Z,24.40
2022-07-29T12:48:58.438Z,24.70
2022-07-29T12:51:34.569Z,24.90
2022-07-29T12:54:12.640Z,25.50
2022-07-29T12:56:43.509Z,25.90
2022-07-29T12:59:19.413Z,24.80
2022-07-29T13:01:50.498Z,25.00
2022-07-29T13:04:33.531Z,25.00
2022-07-29T13:07:07.564Z,24.60
2022-07-29T13:09:49.630Z,25.20
2022-07-29T13:12:17.426Z,25.10
2022-07-29T13:14:51.368Z,24.90
2022-07-29T13:17:28.393Z,24.40
2022-07-29T13:20:10.332Z,25.50
2022-07-29T13:22:38.183Z,25.20
2022-07-29T13:25:08.003Z,24.90
2022-07-29T13:27:39.313Z,24.80
2022-07-29T13:30:10.181Z,25.20
2022-07-29T13:32:38.790Z,26.50
2022-07-29T13:35:09.448Z,25.90
2022-07-29T13:37:41.269Z,25.40
2022-07-29T13:40:11.854Z,24.40
2022-07-29T13:42:42.633Z,24.60
2022-07-29T13:45:11.972Z,25.60
2022-07-29T13:47:42.534Z,27.70
2022-07-29T13:50:13.004Z,27.50
2022-07-29T13:52:41.115Z,27.10
2022-07-29T13:55:09.864Z,27.00
2022-07-29T13:57:37.963Z,28.60
2022-07-29T14:00:06.986Z,29.40
2022-07-29T14:02:36.332Z,28.70
2022-07-29T14:05:08.558Z,29.60
2022-07-29T14:07:42.084Z,30.10
2022-07-29T14:10:10.978Z,28.50
2022-07-29T14:12:39.586Z,29.30
2022-07-29T14:15:08.206Z,28.00
2022-07-29T14:17:36.699Z,27.80
2022-07-29T14:20:06.364Z,27.90
2022-07-29T14:22:37.832Z,29.70
2022-07-29T14:25:14.389Z,28.40
2022-07-29T14:27:44.706Z,28.80
2022-07-29T14:30:13.870Z,27.60
2022-07-29T14:32:42.038Z,26.50
2022-07-29T14:35:10.273Z,24.80
2022-07-29T14:37:40.376Z,24.80
2022-07-29T14:40:11.594Z,25.10
2022-07-29T14:42:40.667Z,25.00
2022-07-29T14:45:10.727Z,25.20
2022-07-29T14:47:39.948Z,26.20
2022-07-29T14:50:09.263Z,25.60
2022-07-29T14:52:37.139Z,24.40
2022-07-29T14:55:19.788Z,23.60
2022-07-29T14:57:49.383Z,23.10
2022-07-29T15:00:18.785Z,23.20
2022-07-29T15:03:01.360Z,23.40
2022-07-29T15:05:32.374Z,23.30
2022-07-29T15:08:00.807Z,22.50
2022-07-29T15:10:29.106Z,21.80
2022-07-29T15:12:58.519Z,21.70
2022-07-29T15:15:27.194Z,22.70
2022-07-29T15:17:55.299Z,22.40
2022-07-29T15:20:26.432Z,22.10
2022-07-29T15:22:56.632Z,21.70
2022-07-29T15:25:28.263Z,23.40
2022-07-29T15:28:01.147Z,24.20
2022-07-29T15:30:33.303Z,23.80
2022-07-29T15:33:05.202Z,23.40
2022-07-29T15:35:40.610Z,23.80
2022-07-29T15:38:09.545Z,22.60
2022-07-29T15:40:42.339Z,22.20
2022-07-29T15:43:10.475Z,21.90
2022-07-29T15:46:07.269Z,21.50
2022-07-29T15:48:40.500Z,20.80
2022-07-29T15:51:08.694Z,20.50
2022-07-29T15:53:37.249Z,20.20
2022-07-29T15:56:05.840Z,20.10
2022-07-29T15:58:36.475Z,20.00
2022-07-29T16:01:07.325Z,20.00
2022-07-29T16:03:40.970Z,19.90
2022-07-29T16:06:11.121Z,19.80
2022-07-29T16:08:39.343Z,19.70
2022-07-29T16:11:07.476Z,19.60
2022-07-29T16:13:36.239Z,19.40
2022-07-29T16:16:05.057Z,19.30
2022-07-29T16:18:34.311Z,19.30
2022-07-29T16:21:02.447Z,19.20
2022-07-29T16:23:30.659Z,19.20
2022-07-29T16:26:00.581Z,19.10
2022-07-29T16:28:31.020Z,19.20
2022-07-29T16:30:59.258Z,19.10
2022-07-29T16:33:27.400Z,19.10
2022-07-29T16:35:55.712Z,19.20
2022-07-29T16:38:24.124Z,19.20
2022-07-29T16:40:52.087Z,19.10
2022-07-29T16:43:20.484Z,19.00
2022-07-29T16:45:49.202Z,19.00
2022-07-29T16:48:18.008Z,18.90
2022-07-29T16:50:46.816Z,18.80
2022-07-29T16:53:15.007Z,18.80
2022-07-29T16:55:43.168Z,18.80
2022-07-29T16:58:12.138Z,18.70
2022-07-29T17:00:41.468Z,18.70
2022-07-29T17:03:09.621Z,18.70
2022-07-29T17:05:52.599Z,18.80
2022-07-29T17:08:23.137Z,18.90
2022-07-29T17:10:54.106Z,19.00
2022-07-29T17:13:22.251Z,18.90
2022-07-29T17:15:50.720Z,19.00
2022-07-29T17:18:18.412Z,19.00
2022-07-29T17:20:46.029Z,19.10
2022-07-29T17:23:13.980Z,19.20
2022-07-29T17:25:41.744Z,19.20
2022-07-29T17:28:09.470Z,19.10
2022-07-29T17:30:37.448Z,19.00
2022-07-29T17:33:05.158Z,19.00
2022-07-29T17:35:51.770Z,18.80
2022-07-29T17:38:19.903Z,18.80
2022-07-29T17:40:47.827Z,18.70
2022-07-29T17:43:15.575Z,18.60
2022-07-29T17:45:49.502Z,18.50
2022-07-29T17:48:19.857Z,18.40
2022-07-29T17:50:49.473Z,18.30
2022-07-29T17:53:17.483Z,18.20
2022-07-29T17:55:46.439Z,18.00
2022-07-29T17:58:16.159Z,17.90
2022-07-29T18:00:44.681Z,17.80
2022-07-29T18:03:12.934Z,17.70
2022-07-29T18:05:41.836Z,17.50
2022-07-29T18:08:09.777Z,17.30
2022-07-29T18:10:37.724Z,17.20
2022-07-29T18:13:06.107Z,17.10
2022-07-29T18:15:35.086Z,16.90
2022-07-29T18:18:03.571Z,16.90
2022-07-29T18:20:32.167Z,16.80
2022-07-29T18:23:01.673Z,16.70
2022-07-29T18:25:30.231Z,16.60
2022-07-29T18:28:00.747Z,16.50
2022-07-29T18:30:31.283Z,16.40
2022-07-29T18:35:52.176Z,16.10
2022-07-29T18:38:22.117Z,16.00
2022-07-29T18:40:50.914Z,15.90
2022-07-29T18:43:19.440Z,15.80
2022-07-29T18:45:49.913Z,15.70
2022-07-29T18:48:19.007Z,15.60
2022-07-29T18:50:46.997Z,15.50
2022-07-29T18:53:15.680Z,15.40
2022-07-29T18:55:48.522Z,15.20
2022-07-29T18:58:17.293Z,15.10
2022-07-29T19:00:45.783Z,15.20
2022-07-29T19:03:14.896Z,15.10
2022-07-29T19:05:43.711Z,15.10
2022-07-29T19:08:12.023Z,15.10
2022-07-29T19:10:40.670Z,15.10
2022-07-29T19:13:10.287Z,15.00
2022-07-29T19:15:42.369Z,14.90
2022-07-29T19:18:10.604Z,14.90
2022-07-29T19:20:40.177Z,14.90
2022-07-29T19:23:09.609Z,14.90
2022-07-29T19:25:53.201Z,14.80
2022-07-29T19:28:26.140Z,14.80
2022-07-29T19:30:54.698Z,14.70
2022-07-29T19:33:23.234Z,14.60
2022-07-29T19:35:54.938Z,14.50
2022-07-29T19:38:25.232Z,14.40
2022-07-29T19:40:54.481Z,14.30
2022-07-29T19:43:51.760Z,14.20
2022-07-29T19:46:13.241Z,14.10
2022-07-29T19:48:42.039Z,14.10
2022-07-29T19:51:10.949Z,14.00
2022-07-29T19:53:39.705Z,13.90
2022-07-29T19:56:08.854Z,13.80
2022-07-29T19:58:38.662Z,13.70
2022-07-29T20:01:10.744Z,13.60
2022-07-29T20:03:40.446Z,13.60
2022-07-29T20:06:08.994Z,13.50
2022-07-29T20:08:37.886Z,13.50
2022-07-29T20:11:07.338Z,13.50
2022-07-29T20:13:36.422Z,13.50
2022-07-29T20:16:06.696Z,13.40
2022-07-29T20:18:36.000Z,13.40
2022-07-29T20:21:05.218Z,13.30
2022-07-29T20:23:33.643Z,13.30
2022-07-29T20:26:05.084Z,13.20
2022-07-29T20:28:36.490Z,13.20
2022-07-29T20:31:06.041Z,13.20
2022-07-29T20:33:34.478Z,13.20
2022-07-29T20:36:03.147Z,13.20
2022-07-29T20:38:31.173Z,13.20
2022-07-29T20:40:59.097Z,13.20
2022-07-29T20:43:27.877Z,13.10
2022-07-29T20:45:56.140Z,13.10
2022-07-29T20:48:24.649Z,13.10
2022-07-29T20:50:55.073Z,13.00
2022-07-29T20:53:24.013Z,13.10
2022-07-29T20:55:52.472Z,12.90
2022-07-29T20:58:21.263Z,12.90
2022-07-29T21:00:51.938Z,12.90
2022-07-29T21:03:19.890Z,12.90
2022-07-29T21:05:48.488Z,12.90
2022-07-29T21:08:16.514Z,12.90
2022-07-29T21:10:44.971Z,13.00
2022-07-29T21:13:14.582Z,13.00
2022-07-29T21:15:46.103Z,13.00
2022-07-29T21:18:28.064Z,13.00
2022-07-29T21:20:58.254Z,13.00
2022-07-29T21:23:28.095Z,13.00
2022-07-29T21:25:57.296Z,12.90
2022-07-29T21:28:36.867Z,12.90
2022-07-29T21:31:12.462Z,12.80
2022-07-29T21:33:44.071Z,12.80
2022-07-29T21:36:47.921Z,12.80
2022-07-29T21:39:07.337Z,12.90
2022-07-29T21:41:35.958Z,12.80
2022-07-29T21:44:04.402Z,12.80
2022-07-29T21:46:36.856Z,12.80
2022-07-29T21:49:05.681Z,12.80
2022-07-29T21:51:34.032Z,12.80
2022-07-29T21:54:02.052Z,12.80
2022-07-29T21:56:31.445Z,12.80
2022-07-29T21:58:59.523Z,12.70
2022-07-29T22:01:27.429Z,12.70
2022-07-29T22:03:55.647Z,12.60
2022-07-29T22:06:23.668Z,12.60
2022-07-29T22:08:52.248Z,12.60
2022-07-29T22:11:20.638Z,12.60
2022-07-29T22:13:48.779Z,12.60
2022-07-29T22:16:17.199Z,12.60
2022-07-29T22:18:47.091Z,12.60
2022-07-29T22:21:18.068Z,12.50
2022-07-29T22:23:46.615Z,12.50
2022-07-29T22:26:14.471Z,12.40
2022-07-29T22:28:42.242Z,12.40
2022-07-29T22:31:10.236Z,12.40
2022-07-29T22:33:38.092Z,12.50
2022-07-29T22:36:06.361Z,12.50
2022-07-29T22:38:34.522Z,12.60
2022-07-29T22:41:03.443Z,12.70
2022-07-29T22:43:31.199Z,12.80
2022-07-29T22:45:59.042Z,13.00
2022-07-29T22:48:26.899Z,13.10
2022-07-29T22:50:54.742Z,13.20
2022-07-29T22:53:22.728Z,13.20
2022-07-29T22:55:50.654Z,13.20
2022-07-29T22:58:18.424Z,13.20
2022-07-29T23:00:46.302Z,13.30
2022-07-29T23:03:13.944Z,13.30
2022-07-29T23:05:41.861Z,13.30
2022-07-29T23:08:09.766Z,13.30
2022-07-29T23:10:37.499Z,13.30
2022-07-29T23:13:05.114Z,13.30
2022-07-29T23:15:33.154Z,13.30
2022-07-29T23:18:00.986Z,13.30
2022-07-29T23:20:28.783Z,13.40
2022-07-29T23:22:56.614Z,13.40
2022-07-29T23:25:24.525Z,13.40
2022-07-29T23:27:52.762Z,13.40
2022-07-29T23:30:20.787Z,13.30
2022-07-29T23:32:48.410Z,13.30
2022-07-29T23:35:16.214Z,13.30
2022-07-29T23:37:44.066Z,13.40
2022-07-29T23:40:14.539Z,13.50
2022-07-29T23:42:43.712Z,13.60
2022-07-29T23:45:13.665Z,13.50
2022-07-29T23:47:42.398Z,13.50
2022-07-29T23:50:16.878Z,13.50
2022-07-29T23:52:45.540Z,13.40
2022-07-29T23:55:36.664Z,13.50
2022-07-29T23:58:03.053Z,13.60
